logo dgac
Miércoles 23 de Agosto del 2017
Buscar por aerodromo o helipuerto
Ingrese nombre de aeródromo, localidad o designador OACI:
METAR del 23-08-2017 a las 03:00 UTC
METAR SCRM 230300Z 12062G75KT 0050 +BLSN VV000 M14/M15 Q0953
Viento: dirección 120 grados, velocidad 62 nudos, con ráfagas de velocidad máxima de 75Nudos
Visibilidad: 50 metros
Fuertes Nieve
Visib_vertical: Cielo oscurecido, : 0 pies de visibilidad vertical
Temperatura: -14 °C
Rocío: -15 °C
Humedad_relativa: 92%
Presión: 953 hPa
METAR del 23-08-2017 a las 00:00 UTC
METAR SCRM 230000Z 10065G82KT 0050 BLSN VV000 M14/M15 Q0958
Viento: dirección 100 grados, velocidad 65 nudos, con ráfagas de velocidad máxima de 82Nudos
Visibilidad: 50 metros
Nieve
Visib_vertical: Cielo oscurecido, : 0 pies de visibilidad vertical
Temperatura: -14 °C
Rocío: -15 °C
Humedad_relativa: 92%
Presión: 958 hPa
METAR del 22-08-2017 a las 23:00 UTC
METAR SCRM 222300Z 10065G82KT 0050 BLSN VV000 M14/M16 Q0960
Viento: dirección 100 grados, velocidad 65 nudos, con ráfagas de velocidad máxima de 82Nudos
Visibilidad: 50 metros
Nieve
Visib_vertical: Cielo oscurecido, : 0 pies de visibilidad vertical
Temperatura: -14 °C
Rocío: -16 °C
Humedad_relativa: 85%
Presión: 960 hPa
METAR del 22-08-2017 a las 22:00 UTC
METAR SCRM 222200Z 10065G82KT 0050 BLSN VV000 M14/M16 Q0960
Viento: dirección 100 grados, velocidad 65 nudos, con ráfagas de velocidad máxima de 82Nudos
Visibilidad: 50 metros
Nieve
Visib_vertical: Cielo oscurecido, : 0 pies de visibilidad vertical
Temperatura: -14 °C
Rocío: -16 °C
Humedad_relativa: 85%
Presión: 960 hPa
METAR del 22-08-2017 a las 21:00 UTC
METAR SCRM 222100Z 10053G78KT 0100 BLSN VV000 M14/M16 Q0963
Viento: dirección 100 grados, velocidad 53 nudos, con ráfagas de velocidad máxima de 78Nudos
Visibilidad: 100 metros
Nieve
Visib_vertical: Cielo oscurecido, : 0 pies de visibilidad vertical
Temperatura: -14 °C
Rocío: -16 °C
Humedad_relativa: 85%
Presión: 963 hPa
METAR del 22-08-2017 a las 20:00 UTC
METAR SCRM 222000Z 10060G70KT 0050 BLSN VV000 M14/M16 Q0964
Viento: dirección 100 grados, velocidad 60 nudos, con ráfagas de velocidad máxima de 70Nudos
Visibilidad: 50 metros
Nieve
Visib_vertical: Cielo oscurecido, : 0 pies de visibilidad vertical
Temperatura: -14 °C
Rocío: -16 °C
Humedad_relativa: 85%
Presión: 964 hPa
METAR del 22-08-2017 a las 19:00 UTC
METAR SCRM 221900Z 10058KT 0100 BLSN VV000 M14/M16 Q0965
Viento: dirección 100 grados, velocidad 58 nudos
Visibilidad: 100 metros
Nieve
Visib_vertical: Cielo oscurecido, : 0 pies de visibilidad vertical
Temperatura: -14 °C
Rocío: -16 °C
Humedad_relativa: 85%
Presión: 965 hPa
METAR del 22-08-2017 a las 18:00 UTC
METAR SCRM 221800Z 10058G71KT 0100 BLSN VV000 M14/M16 Q0966
Viento: dirección 100 grados, velocidad 58 nudos, con ráfagas de velocidad máxima de 71Nudos
Visibilidad: 100 metros
Nieve
Visib_vertical: Cielo oscurecido, : 0 pies de visibilidad vertical
Temperatura: -14 °C
Rocío: -16 °C
Humedad_relativa: 85%
Presión: 966 hPa
METAR del 22-08-2017 a las 17:00 UTC
METAR SCRM 221700Z 09060KT 0100 BLSN VV000 M14/M16 Q0966
Viento: dirección 090 grados, velocidad 60 nudos
Visibilidad: 100 metros
Nieve
Visib_vertical: Cielo oscurecido, : 0 pies de visibilidad vertical
Temperatura: -14 °C
Rocío: -16 °C
Humedad_relativa: 85%
Presión: 966 hPa
METAR del 22-08-2017 a las 16:00 UTC
METAR SCRM 221600Z 10049G62KT 0100 BLSN VV000 M14/M16 Q0972
Viento: dirección 100 grados, velocidad 49 nudos, con ráfagas de velocidad máxima de 62Nudos
Visibilidad: 100 metros
Nieve
Visib_vertical: Cielo oscurecido, : 0 pies de visibilidad vertical
Temperatura: -14 °C
Rocío: -16 °C
Humedad_relativa: 85%
Presión: 972 hPa